sensor_id;sensor_type;location;lat;lon;timestamp;temperature;humidity
26909;DHT22;14477;51.038;4.588;2023-03-12T00:02:05;7.60;99.50
26909;DHT22;14477;51.038;4.588;2023-03-12T00:04:31;7.70;99.70
26909;DHT22;14477;51.038;4.588;2023-03-12T00:06:59;7.60;99.70
26909;DHT22;14477;51.038;4.588;2023-03-12T00:09:25;7.70;99.90
26909;DHT22;14477;51.038;4.588;2023-03-12T00:11:50;7.60;99.90
26909;DHT22;14477;51.038;4.588;2023-03-12T00:14:16;7.60;99.90
26909;DHT22;14477;51.038;4.588;2023-03-12T00:16:42;7.60;99.90
26909;DHT22;14477;51.038;4.588;2023-03-12T00:19:10;7.60;99.90
26909;DHT22;14477;51.038;4.588;2023-03-12T00:21:37;7.60;99.90
26909;DHT22;14477;51.038;4.588;2023-03-12T00:24:03;7.60;99.90
26909;DHT22;14477;51.038;4.588;2023-03-12T00:26:28;7.60;99.90
26909;DHT22;14477;51.038;4.588;2023-03-12T00:28:55;7.60;99.90
26909;DHT22;14477;51.038;4.588;2023-03-12T00:31:26;7.60;99.90
26909;DHT22;14477;51.038;4.588;2023-03-12T00:33:53;7.60;99.80
26909;DHT22;14477;51.038;4.588;2023-03-12T00:36:21;7.50;99.90
26909;DHT22;14477;51.038;4.588;2023-03-12T00:38:52;7.50;99.90
26909;DHT22;14477;51.038;4.588;2023-03-12T00:41:18;7.50;99.90
26909;DHT22;14477;51.038;4.588;2023-03-12T00:43:46;7.50;99.90
26909;DHT22;14477;51.038;4.588;2023-03-12T00:46:11;7.50;99.90
26909;DHT22;14477;51.038;4.588;2023-03-12T00:48:37;7.50;99.90
26909;DHT22;14477;51.038;4.588;2023-03-12T00:51:03;7.50;99.90
26909;DHT22;14477;51.038;4.588;2023-03-12T00:53:29;7.50;99.90
26909;DHT22;14477;51.038;4.588;2023-03-12T00:55:54;7.50;99.90
26909;DHT22;14477;51.038;4.588;2023-03-12T00:58:20;7.50;99.90
26909;DHT22;14477;51.038;4.588;2023-03-12T01:00:46;7.50;99.90
26909;DHT22;14477;51.038;4.588;2023-03-12T01:03:12;7.50;99.90
26909;DHT22;14477;51.038;4.588;2023-03-12T01:05:37;7.50;99.90
26909;DHT22;14477;51.038;4.588;2023-03-12T01:08:06;7.50;99.90
26909;DHT22;14477;51.038;4.588;2023-03-12T01:10:32;7.50;99.90
26909;DHT22;14477;51.038;4.588;2023-03-12T01:12:57;7.50;99.90
26909;DHT22;14477;51.038;4.588;2023-03-12T01:15:23;7.50;99.90
26909;DHT22;14477;51.038;4.588;2023-03-12T01:17:49;7.50;99.90
26909;DHT22;14477;51.038;4.588;2023-03-12T01:20:15;7.60;99.90
26909;DHT22;14477;51.038;4.588;2023-03-12T01:22:41;7.50;99.90
26909;DHT22;14477;51.038;4.588;2023-03-12T01:25:07;7.60;99.90
26909;DHT22;14477;51.038;4.588;2023-03-12T01:27:33;7.50;99.90
26909;DHT22;14477;51.038;4.588;2023-03-12T01:29:58;7.60;99.90
26909;DHT22;14477;51.038;4.588;2023-03-12T01:32:24;7.60;99.90
26909;DHT22;14477;51.038;4.588;2023-03-12T01:34:50;7.50;99.90
26909;DHT22;14477;51.038;4.588;2023-03-12T01:37:16;7.60;99.90
26909;DHT22;14477;51.038;4.588;2023-03-12T01:39:41;7.60;99.90
26909;DHT22;14477;51.038;4.588;2023-03-12T01:42:07;7.60;99.90
26909;DHT22;14477;51.038;4.588;2023-03-12T01:44:58;7.50;99.90
26909;DHT22;14477;51.038;4.588;2023-03-12T01:47:24;7.50;99.90
26909;DHT22;14477;51.038;4.588;2023-03-12T01:49:52;7.60;99.90
26909;DHT22;14477;51.038;4.588;2023-03-12T01:52:31;7.50;99.90
26909;DHT22;14477;51.038;4.588;2023-03-12T01:55:06;7.50;99.90
26909;DHT22;14477;51.038;4.588;2023-03-12T01:57:44;7.50;99.90
26909;DHT22;14477;51.038;4.588;2023-03-12T02:00:19;7.50;99.90
26909;DHT22;14477;51.038;4.588;2023-03-12T02:02:45;7.50;99.90
26909;DHT22;14477;51.038;4.588;2023-03-12T02:08:09;7.50;99.90
26909;DHT22;14477;51.038;4.588;2023-03-12T02:10:35;7.50;99.90
26909;DHT22;14477;51.038;4.588;2023-03-12T02:13:01;7.50;99.90
26909;DHT22;14477;51.038;4.588;2023-03-12T02:15:26;7.50;99.90
26909;DHT22;14477;51.038;4.588;2023-03-12T02:17:52;7.50;99.90
26909;DHT22;14477;51.038;4.588;2023-03-12T02:20:27;7.50;99.90
26909;DHT22;14477;51.038;4.588;2023-03-12T02:25:50;7.50;99.90
26909;DHT22;14477;51.038;4.588;2023-03-12T02:28:19;7.50;99.90
26909;DHT22;14477;51.038;4.588;2023-03-12T02:30:48;7.50;99.90
26909;DHT22;14477;51.038;4.588;2023-03-12T02:33:15;7.50;99.90
26909;DHT22;14477;51.038;4.588;2023-03-12T02:35:41;7.50;99.90
26909;DHT22;14477;51.038;4.588;2023-03-12T02:38:46;7.50;99.90
26909;DHT22;14477;51.038;4.588;2023-03-12T02:41:19;7.40;99.90
26909;DHT22;14477;51.038;4.588;2023-03-12T02:46:34;7.40;99.90
26909;DHT22;14477;51.038;4.588;2023-03-12T02:49:01;7.40;99.90
26909;DHT22;14477;51.038;4.588;2023-03-12T02:51:27;7.40;99.90
26909;DHT22;14477;51.038;4.588;2023-03-12T02:53:53;7.30;99.90
26909;DHT22;14477;51.038;4.588;2023-03-12T02:56:23;7.30;99.90
26909;DHT22;14477;51.038;4.588;2023-03-12T02:58:49;7.30;99.90
26909;DHT22;14477;51.038;4.588;2023-03-12T03:01:15;7.30;99.90
26909;DHT22;14477;51.038;4.588;2023-03-12T03:03:41;7.30;99.90
26909;DHT22;14477;51.038;4.588;2023-03-12T03:06:07;7.30;99.90
26909;DHT22;14477;51.038;4.588;2023-03-12T03:08:33;7.30;99.90
26909;DHT22;14477;51.038;4.588;2023-03-12T03:10:58;7.30;99.90
26909;DHT22;14477;51.038;4.588;2023-03-12T03:13:28;7.30;99.90
26909;DHT22;14477;51.038;4.588;2023-03-12T03:15:53;7.30;99.90
26909;DHT22;14477;51.038;4.588;2023-03-12T03:18:22;7.30;99.90
26909;DHT22;14477;51.038;4.588;2023-03-12T03:20:57;7.30;99.90
26909;DHT22;14477;51.038;4.588;2023-03-12T03:23:23;7.30;99.90
26909;DHT22;14477;51.038;4.588;2023-03-12T03:25:49;7.30;99.90
26909;DHT22;14477;51.038;4.588;2023-03-12T03:28:18;7.30;99.90
26909;DHT22;14477;51.038;4.588;2023-03-12T03:30:43;7.30;99.90
26909;DHT22;14477;51.038;4.588;2023-03-12T03:33:09;7.30;99.90
26909;DHT22;14477;51.038;4.588;2023-03-12T03:35:34;7.30;99.90
26909;DHT22;14477;51.038;4.588;2023-03-12T03:38:00;7.30;99.90
26909;DHT22;14477;51.038;4.588;2023-03-12T03:40:26;7.30;99.90
26909;DHT22;14477;51.038;4.588;2023-03-12T03:42:51;7.30;99.90
26909;DHT22;14477;51.038;4.588;2023-03-12T03:45:17;7.30;99.90
26909;DHT22;14477;51.038;4.588;2023-03-12T03:47:44;7.30;99.90
26909;DHT22;14477;51.038;4.588;2023-03-12T03:50:10;7.30;99.90
26909;DHT22;14477;51.038;4.588;2023-03-12T03:52:36;7.30;99.90
26909;DHT22;14477;51.038;4.588;2023-03-12T03:55:02;7.30;99.90
26909;DHT22;14477;51.038;4.588;2023-03-12T03:57:28;7.30;99.90
26909;DHT22;14477;51.038;4.588;2023-03-12T03:59:54;7.30;99.90
26909;DHT22;14477;51.038;4.588;2023-03-12T04:02:20;7.30;99.90
26909;DHT22;14477;51.038;4.588;2023-03-12T04:04:46;7.30;99.90
26909;DHT22;14477;51.038;4.588;2023-03-12T04:07:11;7.30;99.90
26909;DHT22;14477;51.038;4.588;2023-03-12T04:09:37;7.30;99.90
26909;DHT22;14477;51.038;4.588;2023-03-12T04:12:03;7.30;99.90
26909;DHT22;14477;51.038;4.588;2023-03-12T04:14:28;7.20;99.90
26909;DHT22;14477;51.038;4.588;2023-03-12T04:16:55;7.30;99.90
26909;DHT22;14477;51.038;4.588;2023-03-12T04:19:20;7.20;99.90
26909;DHT22;14477;51.038;4.588;2023-03-12T04:21:46;7.30;99.90
26909;DHT22;14477;51.038;4.588;2023-03-12T04:24:15;7.30;99.90
26909;DHT22;14477;51.038;4.588;2023-03-12T04:26:42;7.30;99.90
26909;DHT22;14477;51.038;4.588;2023-03-12T04:29:07;7.30;99.90
26909;DHT22;14477;51.038;4.588;2023-03-12T04:31:33;7.30;99.90
26909;DHT22;14477;51.038;4.588;2023-03-12T04:33:59;7.30;99.90
26909;DHT22;14477;51.038;4.588;2023-03-12T04:36:25;7.30;99.90
26909;DHT22;14477;51.038;4.588;2023-03-12T04:38:51;7.30;99.90
26909;DHT22;14477;51.038;4.588;2023-03-12T04:41:16;7.30;99.90
26909;DHT22;14477;51.038;4.588;2023-03-12T04:43:42;7.30;99.90
26909;DHT22;14477;51.038;4.588;2023-03-12T04:46:08;7.30;99.90
26909;DHT22;14477;51.038;4.588;2023-03-12T04:48:34;7.30;99.90
26909;DHT22;14477;51.038;4.588;2023-03-12T04:51:01;7.30;99.90
26909;DHT22;14477;51.038;4.588;2023-03-12T04:53:27;7.30;99.90
26909;DHT22;14477;51.038;4.588;2023-03-12T04:55:52;7.30;99.90
26909;DHT22;14477;51.038;4.588;2023-03-12T04:58:19;7.30;99.90
26909;DHT22;14477;51.038;4.588;2023-03-12T05:00:47;7.30;99.90
26909;DHT22;14477;51.038;4.588;2023-03-12T05:03:13;7.30;99.90
26909;DHT22;14477;51.038;4.588;2023-03-12T05:05:38;7.30;99.90
26909;DHT22;14477;51.038;4.588;2023-03-12T05:08:04;7.30;99.90
26909;DHT22;14477;51.038;4.588;2023-03-12T05:10:30;7.30;99.90
26909;DHT22;14477;51.038;4.588;2023-03-12T05:12:56;7.30;99.90
26909;DHT22;14477;51.038;4.588;2023-03-12T05:15:22;7.30;99.90
26909;DHT22;14477;51.038;4.588;2023-03-12T05:17:48;7.30;99.90
26909;DHT22;14477;51.038;4.588;2023-03-12T05:20:14;7.30;99.90
26909;DHT22;14477;51.038;4.588;2023-03-12T05:22:39;7.30;99.90
26909;DHT22;14477;51.038;4.588;2023-03-12T05:25:06;7.30;99.90
26909;DHT22;14477;51.038;4.588;2023-03-12T05:27:31;7.40;99.90
26909;DHT22;14477;51.038;4.588;2023-03-12T05:29:57;7.30;99.90
26909;DHT22;14477;51.038;4.588;2023-03-12T05:32:23;7.40;99.90
26909;DHT22;14477;51.038;4.588;2023-03-12T05:34:49;7.40;99.90
26909;DHT22;14477;51.038;4.588;2023-03-12T05:37:14;7.40;99.90
26909;DHT22;14477;51.038;4.588;2023-03-12T05:39:40;7.30;99.90
26909;DHT22;14477;51.038;4.588;2023-03-12T05:42:12;7.40;99.90
26909;DHT22;14477;51.038;4.588;2023-03-12T05:44:38;7.40;99.90
26909;DHT22;14477;51.038;4.588;2023-03-12T05:47:04;7.40;99.90
26909;DHT22;14477;51.038;4.588;2023-03-12T05:49:30;7.40;99.90
26909;DHT22;14477;51.038;4.588;2023-03-12T05:51:56;7.40;99.90
26909;DHT22;14477;51.038;4.588;2023-03-12T05:54:22;7.40;99.90
26909;DHT22;14477;51.038;4.588;2023-03-12T05:56:48;7.40;99.90
26909;DHT22;14477;51.038;4.588;2023-03-12T05:59:13;7.40;99.90
26909;DHT22;14477;51.038;4.588;2023-03-12T06:01:39;7.40;99.90
26909;DHT22;14477;51.038;4.588;2023-03-12T06:04:05;7.40;99.90
26909;DHT22;14477;51.038;4.588;2023-03-12T06:06:32;7.50;99.90
26909;DHT22;14477;51.038;4.588;2023-03-12T06:08:58;7.50;99.90
26909;DHT22;14477;51.038;4.588;2023-03-12T06:11:24;7.50;99.90
26909;DHT22;14477;51.038;4.588;2023-03-12T06:13:49;7.40;99.90
26909;DHT22;14477;51.038;4.588;2023-03-12T06:16:18;7.50;99.90
26909;DHT22;14477;51.038;4.588;2023-03-12T06:18:44;7.40;99.90
26909;DHT22;14477;51.038;4.588;2023-03-12T06:21:18;7.40;99.90
26909;DHT22;14477;51.038;4.588;2023-03-12T06:23:44;7.40;99.90
26909;DHT22;14477;51.038;4.588;2023-03-12T06:26:11;7.40;99.90
26909;DHT22;14477;51.038;4.588;2023-03-12T06:28:37;7.40;99.90
26909;DHT22;14477;51.038;4.588;2023-03-12T06:31:03;7.40;99.90
26909;DHT22;14477;51.038;4.588;2023-03-12T06:33:30;7.40;99.90
26909;DHT22;14477;51.038;4.588;2023-03-12T06:35:58;7.40;99.90
26909;DHT22;14477;51.038;4.588;2023-03-12T06:38:24;7.50;99.90
26909;DHT22;14477;51.038;4.588;2023-03-12T06:41:11;7.40;99.90
26909;DHT22;14477;51.038;4.588;2023-03-12T06:43:38;7.50;99.90
26909;DHT22;14477;51.038;4.588;2023-03-12T06:46:06;7.50;99.90
26909;DHT22;14477;51.038;4.588;2023-03-12T06:48:33;7.50;99.90
26909;DHT22;14477;51.038;4.588;2023-03-12T06:51:02;7.50;99.90
26909;DHT22;14477;51.038;4.588;2023-03-12T06:53:28;7.50;99.90
26909;DHT22;14477;51.038;4.588;2023-03-12T06:55:53;7.60;99.90
26909;DHT22;14477;51.038;4.588;2023-03-12T06:58:19;7.60;99.90
26909;DHT22;14477;51.038;4.588;2023-03-12T07:00:45;7.60;99.90
26909;DHT22;14477;51.038;4.588;2023-03-12T07:03:10;7.70;99.90
26909;DHT22;14477;51.038;4.588;2023-03-12T07:05:36;7.70;99.90
26909;DHT22;14477;51.038;4.588;2023-03-12T07:08:02;7.80;99.90
26909;DHT22;14477;51.038;4.588;2023-03-12T07:10:27;7.80;99.90
26909;DHT22;14477;51.038;4.588;2023-03-12T07:12:54;7.90;99.90
26909;DHT22;14477;51.038;4.588;2023-03-12T07:15:21;7.90;99.90
26909;DHT22;14477;51.038;4.588;2023-03-12T07:17:46;8.00;99.90
26909;DHT22;14477;51.038;4.588;2023-03-12T07:20:12;8.10;99.90
26909;DHT22;14477;51.038;4.588;2023-03-12T07:22:38;8.20;99.90
26909;DHT22;14477;51.038;4.588;2023-03-12T07:25:04;8.30;99.90
26909;DHT22;14477;51.038;4.588;2023-03-12T07:27:30;8.30;99.90
26909;DHT22;14477;51.038;4.588;2023-03-12T07:29:56;8.40;99.90
26909;DHT22;14477;51.038;4.588;2023-03-12T07:32:21;8.40;99.90
26909;DHT22;14477;51.038;4.588;2023-03-12T07:34:47;8.50;99.90
26909;DHT22;14477;51.038;4.588;2023-03-12T07:37:13;8.60;99.90
26909;DHT22;14477;51.038;4.588;2023-03-12T07:39:38;8.70;99.90
26909;DHT22;14477;51.038;4.588;2023-03-12T07:42:04;8.70;99.90
26909;DHT22;14477;51.038;4.588;2023-03-12T07:44:30;8.80;99.90
26909;DHT22;14477;51.038;4.588;2023-03-12T07:46:56;8.80;99.90
26909;DHT22;14477;51.038;4.588;2023-03-12T07:49:22;8.90;99.90
26909;DHT22;14477;51.038;4.588;2023-03-12T07:51:48;9.00;99.90
26909;DHT22;14477;51.038;4.588;2023-03-12T07:54:13;9.10;99.90
26909;DHT22;14477;51.038;4.588;2023-03-12T07:56:39;9.10;99.90
26909;DHT22;14477;51.038;4.588;2023-03-12T07:59:04;9.20;99.90
26909;DHT22;14477;51.038;4.588;2023-03-12T08:01:30;9.30;99.90
26909;DHT22;14477;51.038;4.588;2023-03-12T08:04:00;9.40;99.90
26909;DHT22;14477;51.038;4.588;2023-03-12T08:06:27;9.50;99.90
26909;DHT22;14477;51.038;4.588;2023-03-12T08:08:53;9.50;99.90
26909;DHT22;14477;51.038;4.588;2023-03-12T08:11:20;9.60;99.90
26909;DHT22;14477;51.038;4.588;2023-03-12T08:13:45;9.60;99.90
26909;DHT22;14477;51.038;4.588;2023-03-12T08:16:11;9.70;99.90
26909;DHT22;14477;51.038;4.588;2023-03-12T08:18:39;9.70;99.90
26909;DHT22;14477;51.038;4.588;2023-03-12T08:21:04;9.80;99.90
26909;DHT22;14477;51.038;4.588;2023-03-12T08:23:30;9.90;99.90
26909;DHT22;14477;51.038;4.588;2023-03-12T08:25:57;9.90;99.90
26909;DHT22;14477;51.038;4.588;2023-03-12T08:28:24;10.00;99.90
26909;DHT22;14477;51.038;4.588;2023-03-12T08:30:52;10.00;99.90
26909;DHT22;14477;51.038;4.588;2023-03-12T08:33:19;10.10;99.90
26909;DHT22;14477;51.038;4.588;2023-03-12T08:35:45;10.10;99.90
26909;DHT22;14477;51.038;4.588;2023-03-12T08:38:11;10.20;99.90
26909;DHT22;14477;51.038;4.588;2023-03-12T08:40:37;10.30;99.90
26909;DHT22;14477;51.038;4.588;2023-03-12T08:43:03;10.40;99.90
26909;DHT22;14477;51.038;4.588;2023-03-12T08:45:29;10.40;99.90
26909;DHT22;14477;51.038;4.588;2023-03-12T08:47:55;10.50;99.90
26909;DHT22;14477;51.038;4.588;2023-03-12T08:50:20;10.60;99.90
26909;DHT22;14477;51.038;4.588;2023-03-12T08:52:47;10.70;99.90
26909;DHT22;14477;51.038;4.588;2023-03-12T08:55:13;10.80;99.90
26909;DHT22;14477;51.038;4.588;2023-03-12T08:57:39;10.80;99.90
26909;DHT22;14477;51.038;4.588;2023-03-12T09:00:06;11.00;99.90
26909;DHT22;14477;51.038;4.588;2023-03-12T09:02:36;11.10;99.90
26909;DHT22;14477;51.038;4.588;2023-03-12T09:05:03;11.20;99.90
26909;DHT22;14477;51.038;4.588;2023-03-12T09:07:32;11.20;99.90
26909;DHT22;14477;51.038;4.588;2023-03-12T09:09:57;11.30;99.90
26909;DHT22;14477;51.038;4.588;2023-03-12T09:12:23;11.40;99.90
26909;DHT22;14477;51.038;4.588;2023-03-12T09:14:50;11.40;99.90
26909;DHT22;14477;51.038;4.588;2023-03-12T09:17:16;11.50;99.90
26909;DHT22;14477;51.038;4.588;2023-03-12T09:19:42;11.50;99.90
26909;DHT22;14477;51.038;4.588;2023-03-12T09:22:08;11.60;99.90
26909;DHT22;14477;51.038;4.588;2023-03-12T09:24:34;11.70;99.90
26909;DHT22;14477;51.038;4.588;2023-03-12T09:27:00;11.80;99.90
26909;DHT22;14477;51.038;4.588;2023-03-12T09:29:26;11.80;99.90
26909;DHT22;14477;51.038;4.588;2023-03-12T09:31:52;11.90;99.90
26909;DHT22;14477;51.038;4.588;2023-03-12T09:34:17;12.00;99.90
26909;DHT22;14477;51.038;4.588;2023-03-12T09:36:43;12.00;99.90
26909;DHT22;14477;51.038;4.588;2023-03-12T09:39:09;12.10;99.90
26909;DHT22;14477;51.038;4.588;2023-03-12T09:41:38;12.20;99.90
26909;DHT22;14477;51.038;4.588;2023-03-12T09:44:34;12.30;99.90
26909;DHT22;14477;51.038;4.588;2023-03-12T09:47:14;12.40;99.90
26909;DHT22;14477;51.038;4.588;2023-03-12T09:49:49;12.50;99.90
26909;DHT22;14477;51.038;4.588;2023-03-12T09:55:20;12.80;99.90
26909;DHT22;14477;51.038;4.588;2023-03-12T09:57:48;12.90;99.90
26909;DHT22;14477;51.038;4.588;2023-03-12T10:00:19;13.00;99.90
26909;DHT22;14477;51.038;4.588;2023-03-12T10:16:58;13.80;99.90
26909;DHT22;14477;51.038;4.588;2023-03-12T10:19:16;13.90;99.90
26909;DHT22;14477;51.038;4.588;2023-03-12T10:27:15;14.30;99.90
26909;DHT22;14477;51.038;4.588;2023-03-12T10:29:43;14.40;99.90
26909;DHT22;14477;51.038;4.588;2023-03-12T10:34:42;14.50;99.90
26909;DHT22;14477;51.038;4.588;2023-03-12T10:37:20;14.50;99.90
26909;DHT22;14477;51.038;4.588;2023-03-12T10:39:48;14.60;99.90
26909;DHT22;14477;51.038;4.588;2023-03-12T10:42:19;14.60;99.90
26909;DHT22;14477;51.038;4.588;2023-03-12T10:44:55;14.70;99.90
26909;DHT22;14477;51.038;4.588;2023-03-12T10:47:36;14.70;99.90
26909;DHT22;14477;51.038;4.588;2023-03-12T10:50:21;14.70;99.90
26909;DHT22;14477;51.038;4.588;2023-03-12T10:52:49;14.80;99.90
26909;DHT22;14477;51.038;4.588;2023-03-12T10:57:46;15.00;99.90
26909;DHT22;14477;51.038;4.588;2023-03-12T11:02:46;15.10;99.90
26909;DHT22;14477;51.038;4.588;2023-03-12T11:05:46;15.30;99.90
26909;DHT22;14477;51.038;4.588;2023-03-12T11:08:25;15.30;99.90
26909;DHT22;14477;51.038;4.588;2023-03-12T11:10:54;15.40;99.90
26909;DHT22;14477;51.038;4.588;2023-03-12T11:13:35;15.40;99.90
26909;DHT22;14477;51.038;4.588;2023-03-12T11:16:23;15.50;99.90
26909;DHT22;14477;51.038;4.588;2023-03-12T11:19:00;15.50;99.90
26909;DHT22;14477;51.038;4.588;2023-03-12T11:21:29;15.50;99.90
26909;DHT22;14477;51.038;4.588;2023-03-12T11:26:23;15.50;99.90
26909;DHT22;14477;51.038;4.588;2023-03-12T11:28:53;15.50;99.90
26909;DHT22;14477;51.038;4.588;2023-03-12T11:34:03;15.40;99.90
26909;DHT22;14477;51.038;4.588;2023-03-12T11:50:01;15.10;99.90
26909;DHT22;14477;51.038;4.588;2023-03-12T11:56:32;15.20;99.90
26909;DHT22;14477;51.038;4.588;2023-03-12T12:02:12;15.50;99.90
26909;DHT22;14477;51.038;4.588;2023-03-12T12:27:39;15.60;99.90
26909;DHT22;14477;51.038;4.588;2023-03-12T12:35:41;15.40;99.90
26909;DHT22;14477;51.038;4.588;2023-03-12T12:38:33;15.50;99.90
26909;DHT22;14477;51.038;4.588;2023-03-12T12:41:13;15.50;99.90
26909;DHT22;14477;51.038;4.588;2023-03-12T12:43:42;15.50;99.90
26909;DHT22;14477;51.038;4.588;2023-03-12T12:51:22;15.50;99.90
26909;DHT22;14477;51.038;4.588;2023-03-12T12:56:31;15.40;99.90
26909;DHT22;14477;51.038;4.588;2023-03-12T13:01:53;15.40;99.90
26909;DHT22;14477;51.038;4.588;2023-03-12T13:04:29;15.40;99.90
26909;DHT22;14477;51.038;4.588;2023-03-12T13:14:41;15.90;99.90
26909;DHT22;14477;51.038;4.588;2023-03-12T13:17:20;16.00;99.90
26909;DHT22;14477;51.038;4.588;2023-03-12T13:19:51;16.20;99.90
26909;DHT22;14477;51.038;4.588;2023-03-12T13:22:40;16.30;99.90
26909;DHT22;14477;51.038;4.588;2023-03-12T13:25:47;16.40;99.90
26909;DHT22;14477;51.038;4.588;2023-03-12T13:30:51;16.70;99.90
26909;DHT22;14477;51.038;4.588;2023-03-12T13:33:18;16.80;99.90
26909;DHT22;14477;51.038;4.588;2023-03-12T13:39:01;17.20;99.90
26909;DHT22;14477;51.038;4.588;2023-03-12T13:41:45;17.30;98.30
26909;DHT22;14477;51.038;4.588;2023-03-12T13:54:46;17.00;99.90
26909;DHT22;14477;51.038;4.588;2023-03-12T13:57:29;17.00;99.90
26909;DHT22;14477;51.038;4.588;2023-03-12T13:59:57;16.90;99.90
26909;DHT22;14477;51.038;4.588;2023-03-12T14:02:27;16.90;99.90
26909;DHT22;14477;51.038;4.588;2023-03-12T14:05:01;16.90;99.90
26909;DHT22;14477;51.038;4.588;2023-03-12T14:07:39;16.90;99.90
26909;DHT22;14477;51.038;4.588;2023-03-12T14:10:24;16.80;99.90
26909;DHT22;14477;51.038;4.588;2023-03-12T14:13:27;16.70;99.90
26909;DHT22;14477;51.038;4.588;2023-03-12T14:18:50;16.50;99.90
26909;DHT22;14477;51.038;4.588;2023-03-12T14:21:17;16.30;99.90
26909;DHT22;14477;51.038;4.588;2023-03-12T14:23:56;16.20;99.90
26909;DHT22;14477;51.038;4.588;2023-03-12T14:26:28;16.10;99.90
26909;DHT22;14477;51.038;4.588;2023-03-12T14:29:25;16.10;99.90
26909;DHT22;14477;51.038;4.588;2023-03-12T14:31:56;16.10;99.90
26909;DHT22;14477;51.038;4.588;2023-03-12T14:34:41;16.00;99.90
26909;DHT22;14477;51.038;4.588;2023-03-12T14:37:20;16.00;99.90
26909;DHT22;14477;51.038;4.588;2023-03-12T14:39:51;15.90;99.90
26909;DHT22;14477;51.038;4.588;2023-03-12T14:42:28;15.90;99.90
26909;DHT22;14477;51.038;4.588;2023-03-12T14:45:16;15.90;99.90
26909;DHT22;14477;51.038;4.588;2023-03-12T14:47:44;15.80;99.90
26909;DHT22;14477;51.038;4.588;2023-03-12T14:50:23;15.80;99.90
26909;DHT22;14477;51.038;4.588;2023-03-12T14:52:49;15.80;99.90
26909;DHT22;14477;51.038;4.588;2023-03-12T14:55:19;15.80;99.90
26909;DHT22;14477;51.038;4.588;2023-03-12T14:57:46;15.90;99.90
26909;DHT22;14477;51.038;4.588;2023-03-12T15:00:23;15.90;99.90
26909;DHT22;14477;51.038;4.588;2023-03-12T15:02:52;15.90;99.90
26909;DHT22;14477;51.038;4.588;2023-03-12T15:05:19;15.90;99.90
26909;DHT22;14477;51.038;4.588;2023-03-12T15:07:46;15.90;99.90
26909;DHT22;14477;51.038;4.588;2023-03-12T15:10:24;15.90;99.90
26909;DHT22;14477;51.038;4.588;2023-03-12T15:12:53;16.00;99.90
26909;DHT22;14477;51.038;4.588;2023-03-12T15:15:33;16.00;99.90
26909;DHT22;14477;51.038;4.588;2023-03-12T15:18:03;16.10;99.90
26909;DHT22;14477;51.038;4.588;2023-03-12T15:20:29;16.10;99.90
26909;DHT22;14477;51.038;4.588;2023-03-12T15:22:56;16.00;99.90
26909;DHT22;14477;51.038;4.588;2023-03-12T15:25:27;16.00;99.90
26909;DHT22;14477;51.038;4.588;2023-03-12T15:28:26;15.90;99.90
26909;DHT22;14477;51.038;4.588;2023-03-12T15:31:15;15.90;99.90
26909;DHT22;14477;51.038;4.588;2023-03-12T15:33:42;15.80;99.90
26909;DHT22;14477;51.038;4.588;2023-03-12T15:36:22;15.70;99.90
26909;DHT22;14477;51.038;4.588;2023-03-12T15:38:57;15.60;99.90
26909;DHT22;14477;51.038;4.588;2023-03-12T15:41:27;15.60;99.90
26909;DHT22;14477;51.038;4.588;2023-03-12T15:43:56;15.60;99.90
26909;DHT22;14477;51.038;4.588;2023-03-12T15:46:23;15.50;99.90
26909;DHT22;14477;51.038;4.588;2023-03-12T15:48:52;15.50;99.90
26909;DHT22;14477;51.038;4.588;2023-03-12T15:51:35;15.40;99.90
26909;DHT22;14477;51.038;4.588;2023-03-12T15:54:24;15.40;99.90
26909;DHT22;14477;51.038;4.588;2023-03-12T15:56:51;15.40;99.90
26909;DHT22;14477;51.038;4.588;2023-03-12T15:59:27;15.30;99.90
26909;DHT22;14477;51.038;4.588;2023-03-12T16:01:54;15.30;99.90
26909;DHT22;14477;51.038;4.588;2023-03-12T16:04:21;15.30;99.90
26909;DHT22;14477;51.038;4.588;2023-03-12T16:06:47;15.30;99.90
26909;DHT22;14477;51.038;4.588;2023-03-12T16:09:25;15.30;99.90
26909;DHT22;14477;51.038;4.588;2023-03-12T16:11:53;15.20;99.90
26909;DHT22;14477;51.038;4.588;2023-03-12T16:14:29;15.20;99.90
26909;DHT22;14477;51.038;4.588;2023-03-12T16:16:56;15.20;99.90
26909;DHT22;14477;51.038;4.588;2023-03-12T16:19:22;15.10;99.90
26909;DHT22;14477;51.038;4.588;2023-03-12T16:21:49;15.10;99.90
26909;DHT22;14477;51.038;4.588;2023-03-12T16:24:15;15.10;99.90
26909;DHT22;14477;51.038;4.588;2023-03-12T16:26:55;15.10;99.90
26909;DHT22;14477;51.038;4.588;2023-03-12T16:29:29;15.10;99.90
26909;DHT22;14477;51.038;4.588;2023-03-12T16:31:56;15.10;99.90
26909;DHT22;14477;51.038;4.588;2023-03-12T16:34:22;15.10;99.90
26909;DHT22;14477;51.038;4.588;2023-03-12T16:36:48;15.00;99.90
26909;DHT22;14477;51.038;4.588;2023-03-12T16:39:14;15.00;99.90
26909;DHT22;14477;51.038;4.588;2023-03-12T16:41:40;15.00;99.90
26909;DHT22;14477;51.038;4.588;2023-03-12T16:44:07;15.00;99.90
26909;DHT22;14477;51.038;4.588;2023-03-12T16:46:33;15.00;99.90
26909;DHT22;14477;51.038;4.588;2023-03-12T16:48:59;14.90;99.90
26909;DHT22;14477;51.038;4.588;2023-03-12T16:51:26;14.90;99.90
26909;DHT22;14477;51.038;4.588;2023-03-12T16:53:54;14.90;99.90
26909;DHT22;14477;51.038;4.588;2023-03-12T16:56:23;14.90;99.90
26909;DHT22;14477;51.038;4.588;2023-03-12T16:58:49;14.90;99.90
26909;DHT22;14477;51.038;4.588;2023-03-12T17:01:17;14.80;99.90
26909;DHT22;14477;51.038;4.588;2023-03-12T17:03:45;14.80;99.90
26909;DHT22;14477;51.038;4.588;2023-03-12T17:06:24;14.80;99.90
26909;DHT22;14477;51.038;4.588;2023-03-12T17:08:50;14.70;99.90
26909;DHT22;14477;51.038;4.588;2023-03-12T17:13:49;14.70;99.90
26909;DHT22;14477;51.038;4.588;2023-03-12T17:16:16;14.70;99.90
26909;DHT22;14477;51.038;4.588;2023-03-12T17:18:42;14.60;99.90
26909;DHT22;14477;51.038;4.588;2023-03-12T17:21:15;14.60;99.90
26909;DHT22;14477;51.038;4.588;2023-03-12T17:23:42;14.60;99.90
26909;DHT22;14477;51.038;4.588;2023-03-12T17:26:08;14.50;99.90
26909;DHT22;14477;51.038;4.588;2023-03-12T17:28:34;14.50;99.90
26909;DHT22;14477;51.038;4.588;2023-03-12T17:30:59;14.40;99.90
26909;DHT22;14477;51.038;4.588;2023-03-12T17:33:25;14.40;99.90
26909;DHT22;14477;51.038;4.588;2023-03-12T17:36:06;14.30;99.90
26909;DHT22;14477;51.038;4.588;2023-03-12T17:38:32;14.30;99.90
26909;DHT22;14477;51.038;4.588;2023-03-12T17:40:59;14.20;99.90
26909;DHT22;14477;51.038;4.588;2023-03-12T17:43:25;14.20;99.90
26909;DHT22;14477;51.038;4.588;2023-03-12T17:45:50;14.20;99.90
26909;DHT22;14477;51.038;4.588;2023-03-12T17:48:17;14.20;99.90
26909;DHT22;14477;51.038;4.588;2023-03-12T17:50:43;14.20;99.90
26909;DHT22;14477;51.038;4.588;2023-03-12T17:53:09;14.10;99.90
26909;DHT22;14477;51.038;4.588;2023-03-12T17:55:35;14.10;99.90
26909;DHT22;14477;51.038;4.588;2023-03-12T17:58:01;14.10;99.90
26909;DHT22;14477;51.038;4.588;2023-03-12T18:00:28;14.00;99.90
26909;DHT22;14477;51.038;4.588;2023-03-12T18:02:54;14.00;99.90
26909;DHT22;14477;51.038;4.588;2023-03-12T18:05:20;14.00;99.90